Time;durP1;ratioP1;P1;durP2;ratioP2;P2;SDS_P1;SDS_P2;PMS_P1;PMS_P2;Temp;Humidity;BMP_temperature;BMP_pressure;BME280_temperature;BME280_humidity;BME280_pressure;Samples;Min_cycle;Max_cycle;Signal;HPM_P1;HPM_P2
2022/08/19 00:00:38;;;;;;;;;;;;;;;25.48;44.69;99891.88;2083809;28;19912;-45
2022/08/19 00:01:39;;;;;;;;;;;;;;;25.48;44.60;99898.28;2075251;28;19916;-45
2022/08/19 00:02:39;;;;;;;;;;;;;;;25.48;44.65;99901.03;2078186;28;20212;-45
2022/08/19 00:03:40;;;;;;;;;;;;;;;25.48;44.69;99901.03;2080559;28;19923;-45
2022/08/19 00:04:40;;;;;;;;;;;;;;;25.48;44.58;99895.50;2081341;28;19920;-44
2022/08/19 00:05:41;;;;;;;;;;;;;;;25.48;44.47;99891.88;2080258;28;20332;-45
2022/08/19 00:06:43;;;;;;;;;;;;;;;25.48;44.58;99897.41;2084961;28;20248;-45
2022/08/19 00:07:43;;;;;;;;;;;;;;;25.48;44.75;99897.41;2079529;28;19913;-46
2022/08/19 00:08:44;;;;;;;;;;;;;;;25.48;44.56;99903.78;2081101;28;20015;-46
2022/08/19 00:09:45;;;;;;;;;;;;;;;25.47;44.72;99902.06;2086023;28;20356;-46
2022/08/19 00:10:47;;;;;;;;;;;;;;;25.48;44.70;99902.91;2081921;28;20800;-46
2022/08/19 00:11:48;;;;;;;;;;;;;;;25.48;44.85;99906.56;2081719;28;19917;-46
2022/08/19 00:12:48;;;;;;;;;;;;;;;25.48;44.88;99903.78;2084894;28;19957;-46
2022/08/19 00:13:49;;;;;;;;;;;;;;;25.47;44.96;99907.59;2093571;28;19917;-47
2022/08/19 00:14:50;;;;;;;;;;;;;;;25.48;44.82;99902.91;2084199;28;19916;-46
2022/08/19 00:15:50;;;;;;;;;;;;;;;25.47;45.01;99907.59;2084529;28;19917;-46
2022/08/19 00:16:53;;;;;;;;;;;;;;;25.47;45.14;99902.06;2084943;28;19920;-46
2022/08/19 00:17:54;;;;;;;;;;;;;;;25.47;45.01;99899.31;2083955;28;19916;-46
2022/08/19 00:18:55;;;;;;;;;;;;;;;25.47;45.12;99902.06;2085105;28;19916;-46
2022/08/19 00:19:55;;;;;;;;;;;;;;;25.47;45.01;99904.81;2084881;28;19918;-46
2022/08/19 00:20:56;;;;;;;;;;;;;;;25.47;45.04;99912.25;2080365;28;20027;-46
2022/08/19 00:21:56;;;;;;;;;;;;;;;25.46;45.16;99905.88;2084799;28;20482;-46
2022/08/19 00:22:57;;;;;;;;;;;;;;;25.45;45.39;99898.63;2076082;28;19917;-46
2022/08/19 00:24:00;;;;;;;;;;;;;;;25.47;45.41;99906.75;2071629;28;19924;-48
2022/08/19 00:25:01;;;;;;;;;;;;;;;25.46;45.45;99905.88;2092943;28;19923;-46
2022/08/19 00:26:02;;;;;;;;;;;;;;;25.45;45.47;99901.41;2083504;28;19917;-46
2022/08/19 00:27:03;;;;;;;;;;;;;;;25.45;45.48;99909.69;2084526;28;20916;-46
2022/08/19 00:28:04;;;;;;;;;;;;;;;25.45;45.30;99909.69;2084706;28;19912;-46
2022/08/19 00:29:05;;;;;;;;;;;;;;;25.45;45.62;99910.56;2085788;28;19934;-46
2022/08/19 00:30:06;;;;;;;;;;;;;;;25.45;45.55;99904.16;2087742;28;20349;-45
2022/08/19 00:31:08;;;;;;;;;;;;;;;25.44;45.55;99908.00;2086736;28;19908;-45
2022/08/19 00:32:08;;;;;;;;;;;;;;;25.44;45.50;99914.34;2085326;28;20315;-45
2022/08/19 00:33:08;;;;;;;;;;;;;;;25.44;45.25;99911.59;2084241;28;20154;-45
2022/08/19 00:34:10;;;;;;;;;;;;;;;25.44;45.33;99910.75;2078315;28;20360;-45
2022/08/19 00:35:11;;;;;;;;;;;;;;;25.44;45.17;99914.34;2077261;28;20644;-45
2022/08/19 00:36:11;;;;;;;;;;;;;;;25.44;45.07;99913.50;2085059;28;20518;-45
2022/08/19 00:37:11;;;;;;;;;;;;;;;25.44;45.28;99917.09;2087675;28;19921;-45
2022/08/19 00:38:12;;;;;;;;;;;;;;;25.44;45.21;99908.84;2085677;28;20038;-45
2022/08/19 00:39:13;;;;;;;;;;;;;;;25.45;45.20;99915.19;2085360;28;19922;-45
2022/08/19 00:40:14;;;;;;;;;;;;;;;25.44;45.31;99903.31;2085141;28;20239;-45
2022/08/19 00:41:15;;;;;;;;;;;;;;;25.45;45.18;99910.56;2085462;28;19909;-45
2022/08/19 00:42:17;;;;;;;;;;;;;;;25.45;45.06;99909.69;2085592;28;19908;-45
2022/08/19 00:43:22;;;;;;;;;;;;;;;25.45;45.03;99912.44;2086309;28;19916;-45
2022/08/19 00:44:27;;;;;;;;;;;;;;;25.45;45.17;99916.06;2082772;28;19909;-45
2022/08/19 00:45:30;;;;;;;;;;;;;;;25.45;45.10;99910.56;2079573;28;20074;-44
2022/08/19 00:46:32;;;;;;;;;;;;;;;25.45;45.23;99915.19;2083003;28;19924;-47
2022/08/19 00:47:32;;;;;;;;;;;;;;;25.46;45.27;99903.13;2080682;28;19928;-45
2022/08/19 00:48:33;;;;;;;;;;;;;;;25.45;45.06;99913.31;2085427;28;20464;-45
2022/08/19 00:49:36;;;;;;;;;;;;;;;25.46;45.13;99916.94;2085458;28;20039;-45
2022/08/19 00:50:40;;;;;;;;;;;;;;;25.45;45.08;99910.56;2086095;28;19939;-45
2022/08/19 00:51:40;;;;;;;;;;;;;;;25.45;45.10;99915.19;2084235;28;19916;-45
2022/08/19 00:52:45;;;;;;;;;;;;;;;25.46;45.23;99914.16;2086523;28;20589;-45
2022/08/19 00:53:45;;;;;;;;;;;;;;;25.45;45.12;99913.31;2075171;28;19932;-45
2022/08/19 00:54:47;;;;;;;;;;;;;;;25.45;45.25;99910.56;2079933;28;20306;-45
2022/08/19 00:55:49;;;;;;;;;;;;;;;25.46;45.10;99922.44;2085378;28;19973;-46
2022/08/19 00:56:50;;;;;;;;;;;;;;;25.45;45.39;99915.19;2087299;28;19967;-45
2022/08/19 00:57:56;;;;;;;;;;;;;;;25.45;45.15;99915.19;2082105;28;19935;-45
2022/08/19 00:58:58;;;;;;;;;;;;;;;25.45;45.42;99915.19;2086154;28;19939;-46
2022/08/19 00:59:59;;;;;;;;;;;;;;;25.45;45.17;99920.72;2085016;28;19917;-45
2022/08/19 01:01:00;;;;;;;;;;;;;;;25.45;45.23;99912.44;2087730;28;19917;-46
2022/08/19 01:02:01;;;;;;;;;;;;;;;25.43;45.48;99915.41;2083542;28;19923;-45
2022/08/19 01:03:01;;;;;;;;;;;;;;;25.44;45.43;99919.03;2086094;28;19952;-45
2022/08/19 01:04:01;;;;;;;;;;;;;;;25.45;45.49;99920.72;2084452;28;19991;-45
2022/08/19 01:05:04;;;;;;;;;;;;;;;25.43;45.59;99911.81;2086777;28;19951;-45
2022/08/19 01:06:05;;;;;;;;;;;;;;;25.45;45.76;99917.97;2084353;28;19963;-45
2022/08/19 01:07:05;;;;;;;;;;;;;;;25.42;46.03;99916.44;2083655;28;20250;-45
2022/08/19 01:08:07;;;;;;;;;;;;;;;25.42;45.97;99910.09;2085991;28;19923;-46
2022/08/19 01:09:07;;;;;;;;;;;;;;;25.42;46.17;99912.84;2084451;28;19916;-45
2022/08/19 01:10:11;;;;;;;;;;;;;;;25.42;46.16;99910.09;2084692;28;20665;-45
2022/08/19 01:11:11;;;;;;;;;;;;;;;25.41;46.16;99913.91;2085209;28;19981;-45
2022/08/19 01:12:12;;;;;;;;;;;;;;;25.40;46.12;99912.19;2084450;28;19916;-45
2022/08/19 01:13:17;;;;;;;;;;;;;;;25.41;46.03;99911.16;2086039;28;19904;-46
2022/08/19 01:14:18;;;;;;;;;;;;;;;25.41;46.00;99911.16;2082374;28;19965;-46
2022/08/19 01:15:20;;;;;;;;;;;;;;;25.40;46.12;99907.50;2075999;28;19917;-45
2022/08/19 01:16:22;;;;;;;;;;;;;;;25.40;46.15;99909.41;2070431;28;20798;-44
2022/08/19 01:17:23;;;;;;;;;;;;;;;25.40;46.18;99912.19;2084737;28;19944;-46
2022/08/19 01:18:25;;;;;;;;;;;;;;;25.41;46.29;99919.44;2085818;28;19916;-46
2022/08/19 01:19:31;;;;;;;;;;;;;;;25.40;46.22;99912.19;2082790;28;19970;-45
2022/08/19 01:20:33;;;;;;;;;;;;;;;25.41;46.14;99913.91;2082102;28;19920;-46
2022/08/19 01:21:37;;;;;;;;;;;;;;;25.40;46.17;99917.69;2079525;28;19917;-45
2022/08/19 01:22:42;;;;;;;;;;;;;;;25.41;46.07;99919.44;2083494;28;20315;-45
2022/08/19 01:23:43;;;;;;;;;;;;;;;25.41;46.21;99916.66;2088028;28;20299;-45
2022/08/19 01:24:43;;;;;;;;;;;;;;;25.41;46.00;99919.44;2084776;28;19913;-45
2022/08/19 01:25:46;;;;;;;;;;;;;;;25.41;45.86;99913.91;2084432;28;19915;-45
2022/08/19 01:26:47;;;;;;;;;;;;;;;25.41;45.86;99914.75;2086034;28;19920;-45
2022/08/19 01:27:49;;;;;;;;;;;;;;;25.41;45.79;99911.16;2075602;28;19916;-44
2022/08/19 01:28:51;;;;;;;;;;;;;;;25.41;45.97;99920.28;2070220;28;19920;-45
2022/08/19 01:29:51;;;;;;;;;;;;;;;25.42;46.09;99912.84;2075682;28;20051;-45
2022/08/19 01:30:52;;;;;;;;;;;;;;;25.41;45.79;99913.91;2083710;28;19928;-45
2022/08/19 01:31:53;;;;;;;;;;;;;;;25.42;45.80;99921.13;2078094;28;20772;-45
2022/08/19 01:32:53;;;;;;;;;;;;;;;25.41;45.85;99920.28;2076972;28;19912;-45
2022/08/19 01:33:55;;;;;;;;;;;;;;;25.41;45.81;99917.50;2079637;28;20218;-45
2022/08/19 01:34:55;;;;;;;;;;;;;;;25.42;45.65;99910.09;2084763;28;19912;-45
2022/08/19 01:36:03;;;;;;;;;;;;;;;25.42;45.60;99910.09;2079864;28;19924;-45
2022/08/19 01:37:08;;;;;;;;;;;;;;;25.41;45.64;99906.47;2081860;28;20426;-45
2022/08/19 01:38:10;;;;;;;;;;;;;;;25.41;45.87;99913.91;2081976;28;19928;-45
2022/08/19 01:39:12;;;;;;;;;;;;;;;25.42;46.02;99910.09;2084250;28;20006;-45
2022/08/19 01:40:12;;;;;;;;;;;;;;;25.42;46.08;99899.03;2084518;28;19915;-45
2022/08/19 01:41:13;;;;;;;;;;;;;;;25.41;45.86;99908.38;2086234;28;20345;-45
2022/08/19 01:42:13;;;;;;;;;;;;;;;25.40;45.88;99893.72;2084038;28;19927;-46
2022/08/19 01:43:14;;;;;;;;;;;;;;;25.41;45.65;99909.22;2085027;28;19942;-45
2022/08/19 01:44:15;;;;;;;;;;;;;;;25.40;46.01;99902.00;2086817;28;19916;-45
2022/08/19 01:45:17;;;;;;;;;;;;;;;25.41;46.02;99902.88;2083344;28;19917;-45
2022/08/19 01:46:17;;;;;;;;;;;;;;;25.40;46.38;99902.00;2080389;28;20005;-45
2022/08/19 01:47:18;;;;;;;;;;;;;;;25.41;46.30;99905.63;2075895;28;19920;-45
2022/08/19 01:48:18;;;;;;;;;;;;;;;25.39;46.33;99900.28;2076731;28;19943;-45
2022/08/19 01:49:20;;;;;;;;;;;;;;;25.40;46.24;99901.13;2075429;28;19971;-45
2022/08/19 01:50:21;;;;;;;;;;;;;;;25.39;46.30;99905.81;2074707;28;19909;-45
2022/08/19 01:51:22;;;;;;;;;;;;;;;25.39;46.52;99903.06;2077474;28;19913;-45
2022/08/19 01:52:22;;;;;;;;;;;;;;;25.39;46.56;99899.44;2075861;28;20011;-45
2022/08/19 01:53:23;;;;;;;;;;;;;;;25.38;46.63;99900.47;2075400;28;19913;-45
2022/08/19 01:54:24;;;;;;;;;;;;;;;25.39;46.52;99904.97;2077369;28;19920;-45
2022/08/19 01:55:24;;;;;;;;;;;;;;;25.38;46.56;99906.00;2076279;28;19909;-45
2022/08/19 01:56:24;;;;;;;;;;;;;;;25.38;46.83;99915.16;2075090;28;20330;-45
2022/08/19 01:57:25;;;;;;;;;;;;;;;25.38;46.53;99908.75;2076851;28;20263;-45
2022/08/19 01:58:30;;;;;;;;;;;;;;;25.38;46.75;99915.16;2072593;28;19975;-45
2022/08/19 01:59:31;;;;;;;;;;;;;;;25.38;46.55;99914.28;2076201;28;19923;-45
2022/08/19 02:00:32;;;;;;;;;;;;;;;25.38;46.79;99914.28;2076078;28;20212;-45
2022/08/19 02:01:34;;;;;;;;;;;;;;;25.38;46.65;99919.78;2079286;28;19963;-45
2022/08/19 02:02:34;;;;;;;;;;;;;;;25.37;46.77;99913.44;2076086;28;20263;-45
2022/08/19 02:03:34;;;;;;;;;;;;;;;25.37;46.71;99905.16;2074841;28;19999;-45
2022/08/19 02:04:37;;;;;;;;;;;;;;;25.38;46.77;99920.66;2078028;28;20592;-45
2022/08/19 02:05:37;;;;;;;;;;;;;;;25.38;46.78;99922.56;2077295;28;19917;-45
2022/08/19 02:06:39;;;;;;;;;;;;;;;25.38;46.47;99914.28;2071763;28;20137;-45
2022/08/19 02:07:40;;;;;;;;;;;;;;;25.38;46.48;99922.56;2072938;28;19923;-45
2022/08/19 02:08:40;;;;;;;;;;;;;;;25.36;46.59;99914.50;2077017;28;20414;-45
2022/08/19 02:09:41;;;;;;;;;;;;;;;25.38;46.57;99925.31;2076841;28;20028;-45
2022/08/19 02:10:42;;;;;;;;;;;;;;;25.39;46.45;99929.78;2074965;28;19924;-45
2022/08/19 02:11:42;;;;;;;;;;;;;;;25.38;46.14;99922.56;2075655;28;19913;-44
2022/08/19 02:12:43;;;;;;;;;;;;;;;25.39;46.32;99927.03;2074545;28;19917;-45
2022/08/19 02:13:43;;;;;;;;;;;;;;;25.39;46.43;99935.31;2075055;28;19990;-45
2022/08/19 02:14:44;;;;;;;;;;;;;;;25.38;46.39;99930.81;2077124;28;20011;-45
2022/08/19 02:15:44;;;;;;;;;;;;;;;25.38;46.39;99931.72;2075188;28;19915;-45
2022/08/19 02:16:44;;;;;;;;;;;;;;;25.39;46.30;99932.56;2080799;28;19964;-45
2022/08/19 02:17:45;;;;;;;;;;;;;;;25.38;46.47;99931.72;2074384;28;19971;-45
2022/08/19 02:18:48;;;;;;;;;;;;;;;25.39;46.56;99935.31;2071740;28;19920;-45
2022/08/19 02:19:48;;;;;;;;;;;;;;;25.38;46.55;99936.34;2075201;28;19928;-45
2022/08/19 02:20:49;;;;;;;;;;;;;;;25.38;46.38;99928.94;2077554;28;19915;-44
2022/08/19 02:21:49;;;;;;;;;;;;;;;25.39;46.17;99929.78;2076566;28;19965;-45
2022/08/19 02:22:50;;;;;;;;;;;;;;;25.39;46.25;99935.31;2075389;28;19921;-44
2022/08/19 02:23:50;;;;;;;;;;;;;;;25.37;46.29;99931.88;2074301;28;19986;-45
2022/08/19 02:24:51;;;;;;;;;;;;;;;25.38;46.11;99937.22;2076811;28;19916;-45
2022/08/19 02:25:51;;;;;;;;;;;;;;;25.38;46.41;99937.22;2066364;28;20139;-45
2022/08/19 02:26:51;;;;;;;;;;;;;;;25.38;46.21;99942.75;2074422;28;19917;-45
2022/08/19 02:27:52;;;;;;;;;;;;;;;25.38;46.32;99934.47;2075316;28;19963;-44
2022/08/19 02:28:54;;;;;;;;;;;;;;;25.38;46.39;99937.22;2077813;28;19917;-45
2022/08/19 02:29:54;;;;;;;;;;;;;;;25.38;46.29;99939.09;2073083;28;20479;-45
2022/08/19 02:30:54;;;;;;;;;;;;;;;25.37;46.44;99931.88;2078012;28;19999;-45
2022/08/19 02:31:55;;;;;;;;;;;;;;;25.36;46.74;99933.81;2075483;28;20324;-45
2022/08/19 02:32:55;;;;;;;;;;;;;;;25.37;46.64;99940.16;2075026;28;19913;-45
2022/08/19 02:33:56;;;;;;;;;;;;;;;25.36;46.70;99933.81;2073402;28;19959;-45
2022/08/19 02:34:56;;;;;;;;;;;;;;;25.36;46.83;99938.47;2070039;28;19955;-45
2022/08/19 02:35:56;;;;;;;;;;;;;;;25.36;46.97;99944.00;2073057;28;19928;-45
2022/08/19 02:36:57;;;;;;;;;;;;;;;25.36;47.02;99949.50;2074374;28;19920;-45
2022/08/19 02:39:15;;;;;;;;;;;;;;;25.35;47.27;99945.03;2074163;28;19959;-44
2022/08/19 02:40:17;;;;;;;;;;;;;;;25.35;47.07;99945.88;2077788;28;20870;-44
2022/08/19 02:41:20;;;;;;;;;;;;;;;25.35;47.14;99942.25;2077438;28;20212;-45
2022/08/19 02:42:20;;;;;;;;;;;;;;;25.35;47.22;99936.75;2074324;28;19912;-45
2022/08/19 02:43:21;;;;;;;;;;;;;;;25.34;46.98;99943.31;2076230;28;20374;-45
2022/08/19 02:44:21;;;;;;;;;;;;;;;25.34;47.29;99951.59;2076644;28;19916;-45
2022/08/19 02:45:22;;;;;;;;;;;;;;;25.35;47.31;99947.78;2075208;28;20633;-45
2022/08/19 02:46:26;;;;;;;;;;;;;;;25.35;47.36;99947.78;2013869;28;2150352;-45
2022/08/19 02:47:27;;;;;;;;;;;;;;;25.34;47.24;99941.41;2087485;28;19950;-45
2022/08/19 02:48:27;;;;;;;;;;;;;;;25.34;47.27;99944.16;2083177;28;20361;-45
2022/08/19 02:49:27;;;;;;;;;;;;;;;25.34;47.37;99938.66;2086109;28;19923;-45
2022/08/19 02:50:28;;;;;;;;;;;;;;;25.34;47.32;99943.31;2083825;28;19924;-46
2022/08/19 02:51:30;;;;;;;;;;;;;;;25.34;47.19;99946.94;2083172;28;20323;-46
2022/08/19 02:52:31;;;;;;;;;;;;;;;25.35;47.32;99956.06;2083365;28;19927;-46
2022/08/19 02:53:31;;;;;;;;;;;;;;;25.34;47.18;99946.09;2083003;28;19916;-45
2022/08/19 02:54:32;;;;;;;;;;;;;;;25.34;47.29;99941.41;2080024;28;19925;-45
2022/08/19 02:55:32;;;;;;;;;;;;;;;25.35;47.30;99947.78;2082768;28;20498;-46
2022/08/19 02:56:34;;;;;;;;;;;;;;;25.33;47.06;99945.22;2086613;28;19909;-46
2022/08/19 02:57:35;;;;;;;;;;;;;;;25.35;47.08;99947.78;2086201;28;19923;-46
2022/08/19 02:58:35;;;;;;;;;;;;;;;25.36;47.18;99949.50;2082149;28;19919;-45
2022/08/19 02:59:36;;;;;;;;;;;;;;;25.35;46.99;99945.03;2077501;28;19939;-45
2022/08/19 03:00:42;;;;;;;;;;;;;;;25.35;47.16;99948.63;2085403;28;19916;-45
2022/08/19 03:01:42;;;;;;;;;;;;;;;25.35;46.89;99953.28;2081704;28;19982;-46
2022/08/19 03:02:42;;;;;;;;;;;;;;;25.36;46.78;99949.50;2083442;28;20366;-45
2022/08/19 03:03:43;;;;;;;;;;;;;;;25.35;46.90;99951.38;2083895;28;19927;-45
2022/08/19 03:04:43;;;;;;;;;;;;;;;25.35;46.73;99954.16;2076520;28;19916;-45
2022/08/19 03:05:44;;;;;;;;;;;;;;;25.34;46.74;99948.84;2073808;28;19909;-45
2022/08/19 03:06:46;;;;;;;;;;;;;;;25.35;46.73;99958.81;2084013;28;19956;-46
2022/08/19 03:07:46;;;;;;;;;;;;;;;25.35;46.83;99950.53;2085406;28;19924;-45
2022/08/19 03:08:47;;;;;;;;;;;;;;;25.36;46.89;99955.03;2083977;28;20255;-45
2022/08/19 03:09:47;;;;;;;;;;;;;;;25.35;47.10;99958.81;2083970;28;20287;-46
2022/08/19 03:10:48;;;;;;;;;;;;;;;25.35;47.19;99953.28;2085077;28;20492;-44
2022/08/19 03:11:48;;;;;;;;;;;;;;;25.34;46.95;99962.63;2085205;28;19912;-46
2022/08/19 03:12:48;;;;;;;;;;;;;;;25.35;47.09;99958.81;2088069;28;19912;-46
2022/08/19 03:13:50;;;;;;;;;;;;;;;25.35;46.92;99964.34;2083002;28;19916;-45
2022/08/19 03:14:51;;;;;;;;;;;;;;;25.35;47.24;99958.81;2084923;28;19912;-46
2022/08/19 03:15:52;;;;;;;;;;;;;;;25.35;47.02;99961.56;2074877;28;19917;-46
2022/08/19 03:16:52;;;;;;;;;;;;;;;25.35;47.10;99958.81;2081857;28;20381;-46
2022/08/19 03:17:52;;;;;;;;;;;;;;;25.36;47.04;99960.53;2083921;28;19913;-45
2022/08/19 03:18:54;;;;;;;;;;;;;;;25.34;47.20;99955.22;2085284;28;20003;-46
2022/08/19 03:19:54;;;;;;;;;;;;;;;25.34;47.35;99959.88;2074548;28;19920;-45
2022/08/19 03:20:55;;;;;;;;;;;;;;;25.34;47.11;99957.13;2074031;28;19919;-44
2022/08/19 03:21:56;;;;;;;;;;;;;;;25.33;47.47;99959.03;2086191;28;19961;-45
2022/08/19 03:22:56;;;;;;;;;;;;;;;25.33;47.36;99958.16;2083997;28;19920;-45
2022/08/19 03:23:57;;;;;;;;;;;;;;;25.32;47.35;99954.53;2084444;28;19916;-45
2022/08/19 03:24:58;;;;;;;;;;;;;;;25.32;47.46;99956.44;2083503;28;20675;-45
2022/08/19 03:25:59;;;;;;;;;;;;;;;25.33;47.47;99960.91;2084308;28;19970;-45
2022/08/19 03:26:59;;;;;;;;;;;;;;;25.31;47.69;99958.38;2086370;28;19973;-45
2022/08/19 03:28:00;;;;;;;;;;;;;;;25.31;47.52;99958.38;2084958;28;19923;-45
2022/08/19 03:29:04;;;;;;;;;;;;;;;25.31;47.41;99961.13;2084448;28;20234;-45
2022/08/19 03:30:06;;;;;;;;;;;;;;;25.30;47.56;99961.31;2076191;28;19908;-45
2022/08/19 03:31:10;;;;;;;;;;;;;;;25.30;47.54;99962.16;2078544;28;19917;-45
2022/08/19 03:32:10;;;;;;;;;;;;;;;25.30;47.41;99961.31;2084901;28;19927;-45
2022/08/19 03:33:14;;;;;;;;;;;;;;;25.31;47.51;99960.28;2079950;28;20241;-45
2022/08/19 03:34:17;;;;;;;;;;;;;;;25.31;47.44;99957.50;2086900;28;19967;-45
2022/08/19 03:35:17;;;;;;;;;;;;;;;25.30;47.51;99961.31;2085489;28;19923;-44
2022/08/19 03:36:22;;;;;;;;;;;;;;;25.31;47.56;99960.28;2087040;28;20231;-45
2022/08/19 03:37:22;;;;;;;;;;;;;;;25.30;47.64;99961.31;2083011;28;20354;-45
2022/08/19 03:38:22;;;;;;;;;;;;;;;25.31;47.49;99969.41;2079427;28;20115;-46
2022/08/19 03:39:24;;;;;;;;;;;;;;;25.30;47.28;99967.66;2086035;28;19993;-45
2022/08/19 03:40:25;;;;;;;;;;;;;;;25.30;47.57;99967.66;2086622;28;19962;-45
2022/08/19 03:41:33;;;;;;;;;;;;;;;25.31;47.50;99963.03;2085763;28;19920;-47
2022/08/19 03:42:33;;;;;;;;;;;;;;;25.31;47.26;99957.50;2085754;28;20236;-46
2022/08/19 03:43:34;;;;;;;;;;;;;;;25.31;47.36;99971.31;2084573;28;19920;-46
2022/08/19 03:44:37;;;;;;;;;;;;;;;25.31;47.48;99965.78;2089248;28;19917;-46
2022/08/19 03:45:37;;;;;;;;;;;;;;;25.31;47.56;99971.31;2085570;28;19923;-45
2022/08/19 03:46:38;;;;;;;;;;;;;;;25.31;47.28;99968.56;2085425;28;19932;-45
2022/08/19 03:47:38;;;;;;;;;;;;;;;25.31;47.47;99974.91;2096465;28;19921;-46
2022/08/19 03:48:40;;;;;;;;;;;;;;;25.31;47.49;99968.56;2085760;28;20010;-46
2022/08/19 03:49:40;;;;;;;;;;;;;;;25.31;47.33;99968.56;2086318;28;19916;-45
2022/08/19 03:50:40;;;;;;;;;;;;;;;25.31;47.29;99974.06;2076453;28;19909;-45
2022/08/19 03:51:41;;;;;;;;;;;;;;;25.30;47.45;99972.34;2080321;28;19920;-45
2022/08/19 03:52:42;;;;;;;;;;;;;;;25.31;47.30;99968.56;2086586;28;19913;-45
2022/08/19 03:53:42;;;;;;;;;;;;;;;25.31;47.35;99965.78;2083867;28;19943;-46
2022/08/19 03:54:43;;;;;;;;;;;;;;;25.31;47.51;99974.06;2086279;28;19974;-45
2022/08/19 03:55:44;;;;;;;;;;;;;;;25.31;47.32;99974.91;2081176;28;19912;-45
2022/08/19 03:56:45;;;;;;;;;;;;;;;25.30;47.55;99978.69;2085246;28;19923;-45
2022/08/19 03:57:48;;;;;;;;;;;;;;;25.30;47.55;99978.69;2086766;28;19920;-44
2022/08/19 03:58:48;;;;;;;;;;;;;;;25.31;47.52;99979.59;2080592;28;19917;-45
2022/08/19 03:59:48;;;;;;;;;;;;;;;25.31;47.38;99979.59;2084978;28;20516;-45
2022/08/19 04:00:49;;;;;;;;;;;;;;;25.31;47.29;99979.59;2086379;28;19919;-45
2022/08/19 04:01:49;;;;;;;;;;;;;;;25.31;47.54;99979.59;2085120;28;19916;-46
2022/08/19 04:02:49;;;;;;;;;;;;;;;25.30;47.48;99983.38;2086935;28;19940;-46
2022/08/19 04:03:49;;;;;;;;;;;;;;;25.30;47.55;99986.97;2085035;28;19951;-45
2022/08/19 04:04:52;;;;;;;;;;;;;;;25.29;47.49;99981.69;2083056;28;19967;-45
2022/08/19 04:05:53;;;;;;;;;;;;;;;25.29;47.54;99988.03;2085036;28;20478;-45
2022/08/19 04:06:53;;;;;;;;;;;;;;;25.29;47.56;99976.16;2084509;28;20137;-45
2022/08/19 04:07:58;;;;;;;;;;;;;;;25.28;47.86;99980.78;2086791;28;20300;-45
2022/08/19 04:09:00;;;;;;;;;;;;;;;25.29;47.90;99995.47;2084914;28;20199;-45
2022/08/19 04:10:00;;;;;;;;;;;;;;;25.27;47.82;99989.28;2080284;28;20512;-45
2022/08/19 04:11:01;;;;;;;;;;;;;;;25.28;48.04;99996.50;2087586;28;19916;-45
2022/08/19 04:12:01;;;;;;;;;;;;;;;25.28;47.80;99993.75;2084849;28;19917;-44
2022/08/19 04:13:02;;;;;;;;;;;;;;;25.27;47.87;99989.28;2090126;28;20015;-44
2022/08/19 04:14:03;;;;;;;;;;;;;;;25.28;47.89;99990.97;2076319;28;19919;-44
2022/08/19 04:15:04;;;;;;;;;;;;;;;25.27;47.82;99989.28;2077111;28;19913;-45
2022/08/19 04:16:05;;;;;;;;;;;;;;;25.27;48.02;100003.06;2074285;28;20398;-43
2022/08/19 04:17:05;;;;;;;;;;;;;;;25.26;47.84;99999.47;2077623;28;19925;-45
2022/08/19 04:18:07;;;;;;;;;;;;;;;25.27;47.77;99994.81;2087699;28;19916;-45
2022/08/19 04:19:07;;;;;;;;;;;;;;;25.26;47.75;99988.44;2082805;28;19917;-45
2022/08/19 04:20:08;;;;;;;;;;;;;;;25.27;47.98;99994.81;2086511;28;20278;-45
2022/08/19 04:21:15;;;;;;;;;;;;;;;25.27;47.85;99997.56;2082360;28;20221;-44
2022/08/19 04:22:15;;;;;;;;;;;;;;;25.27;47.71;100001.16;2087113;28;19923;-45
2022/08/19 04:23:15;;;;;;;;;;;;;;;25.27;47.67;100000.31;2084747;28;20359;-45
2022/08/19 04:24:16;;;;;;;;;;;;;;;25.28;47.86;100007.53;2087258;28;19916;-45
2022/08/19 04:25:16;;;;;;;;;;;;;;;25.27;47.82;100003.06;2085416;28;19917;-45
2022/08/19 04:26:19;;;;;;;;;;;;;;;25.27;47.66;100001.16;2086254;28;19922;-45
2022/08/19 04:27:19;;;;;;;;;;;;;;;25.26;47.63;99991.19;2085385;28;20019;-45
2022/08/19 04:28:19;;;;;;;;;;;;;;;25.27;47.83;100001.16;2086541;28;19916;-45
2022/08/19 04:29:22;;;;;;;;;;;;;;;25.28;47.54;100002.03;2084646;28;20463;-45
2022/08/19 04:30:22;;;;;;;;;;;;;;;25.27;47.67;100006.69;2086003;28;19955;-45
2022/08/19 04:31:26;;;;;;;;;;;;;;;25.27;47.78;100000.31;2083977;28;19905;-45
2022/08/19 04:32:27;;;;;;;;;;;;;;;25.27;47.80;99998.41;2082361;28;19947;-44
2022/08/19 04:33:28;;;;;;;;;;;;;;;25.27;47.91;99997.56;2085760;28;19956;-45
2022/08/19 04:34:29;;;;;;;;;;;;;;;25.27;47.90;100011.34;2087809;28;19946;-45
2022/08/19 04:35:34;;;;;;;;;;;;;;;25.26;47.89;100009.63;2084471;28;19916;-45
2022/08/19 04:36:36;;;;;;;;;;;;;;;25.26;47.90;100004.09;2086523;28;19916;-45
2022/08/19 04:37:38;;;;;;;;;;;;;;;25.26;47.99;100007.75;2082291;28;20003;-45
2022/08/19 04:38:38;;;;;;;;;;;;;;;25.26;47.81;100010.50;2084630;28;19920;-45
2022/08/19 04:43:38;;;;;;;;;;;;;;;25.26;47.96;100015.16;2087425;28;19916;-44
2022/08/19 04:44:38;;;;;;;;;;;;;;;25.27;47.87;100014.13;2088516;28;19915;-46
2022/08/19 04:45:38;;;;;;;;;;;;;;;25.24;48.01;100016.22;2085224;28;19912;-46
2022/08/19 04:46:39;;;;;;;;;;;;;;;25.24;47.90;100013.44;2083350;28;19970;-45
2022/08/19 04:47:40;;;;;;;;;;;;;;;25.25;47.90;100014.28;2086489;28;19943;-45
2022/08/19 04:48:41;;;;;;;;;;;;;;;25.26;47.91;100015.16;2085448;28;19916;-45
2022/08/19 04:49:41;;;;;;;;;;;;;;;25.24;47.96;100021.72;2086722;28;21019;-45
2022/08/19 04:50:42;;;;;;;;;;;;;;;25.24;48.12;100024.47;2083300;28;20023;-46
2022/08/19 04:51:44;;;;;;;;;;;;;;;25.24;48.04;100027.25;2085477;28;19916;-45
2022/08/19 04:52:45;;;;;;;;;;;;;;;25.23;48.04;100025.53;2087614;28;20282;-45
2022/08/19 04:53:45;;;;;;;;;;;;;;;25.25;48.04;100028.09;2082140;28;20011;-45
2022/08/19 04:54:46;;;;;;;;;;;;;;;25.24;48.14;100027.25;2085542;28;19917;-45
2022/08/19 04:55:46;;;;;;;;;;;;;;;25.23;48.05;100031.06;2088308;28;19923;-45
2022/08/19 04:56:49;;;;;;;;;;;;;;;25.24;48.11;100037.44;2082551;28;20353;-45
2022/08/19 04:57:50;;;;;;;;;;;;;;;25.24;48.03;100035.50;2086270;28;20109;-45
2022/08/19 04:58:51;;;;;;;;;;;;;;;25.24;48.23;100029.16;2081918;28;20448;-45
2022/08/19 04:59:55;;;;;;;;;;;;;;;25.23;48.20;100042.09;2079387;28;19927;-45
2022/08/19 05:00:56;;;;;;;;;;;;;;;25.22;48.07;100040.38;2076926;28;19916;-45
2022/08/19 05:01:56;;;;;;;;;;;;;;;25.23;48.09;100038.44;2075087;28;19908;-45
2022/08/19 05:02:56;;;;;;;;;;;;;;;25.22;48.17;100040.38;2085638;28;20412;-45
2022/08/19 05:03:57;;;;;;;;;;;;;;;25.22;48.09;100037.59;2084520;28;20011;-45
2022/08/19 05:05:00;;;;;;;;;;;;;;;25.23;48.01;100033.81;2084257;28;19956;-45
2022/08/19 05:06:05;;;;;;;;;;;;;;;25.23;48.05;100033.81;2077774;28;20321;-45
2022/08/19 05:07:07;;;;;;;;;;;;;;;25.24;48.09;100040.19;2083094;28;19921;-45
2022/08/19 05:08:07;;;;;;;;;;;;;;;25.24;48.12;100038.28;2087817;28;19920;-45
2022/08/19 05:09:07;;;;;;;;;;;;;;;25.24;48.12;100042.94;2085908;28;19916;-45
2022/08/19 05:10:08;;;;;;;;;;;;;;;25.24;47.90;100042.94;2082758;28;19923;-45
2022/08/19 05:11:22;;;;;;;;;;;;;;;25.24;47.99;100049.31;2088057;28;19920;-45
2022/08/19 05:12:22;;;;;;;;;;;;;;;25.23;48.04;100044.84;2084535;28;20027;-45
2022/08/19 05:13:23;;;;;;;;;;;;;;;25.24;48.06;100041.03;2087839;28;20372;-45
2022/08/19 05:14:23;;;;;;;;;;;;;;;25.24;47.97;100042.94;2082712;28;19923;-45
2022/08/19 05:15:23;;;;;;;;;;;;;;;25.23;48.04;100044.84;2088705;28;19916;-45
2022/08/19 05:16:24;;;;;;;;;;;;;;;25.25;47.99;100052.91;2084080;28;20378;-45
2022/08/19 05:17:25;;;;;;;;;;;;;;;25.24;48.00;100045.69;2084659;28;19926;-45
2022/08/19 05:22:34;;;;;;;;;;;;;;;25.23;47.75;100044.84;2082947;28;20650;-45
2022/08/19 05:23:34;;;;;;;;;;;;;;;25.24;47.94;100051.22;2084881;28;19916;-45
2022/08/19 05:24:35;;;;;;;;;;;;;;;25.23;48.12;100053.13;2085692;28;19919;-45
2022/08/19 05:25:39;;;;;;;;;;;;;;;25.23;48.06;100050.38;2089491;28;19974;-45
2022/08/19 05:26:40;;;;;;;;;;;;;;;25.23;48.04;100053.13;2080392;28;19917;-45
2022/08/19 05:27:41;;;;;;;;;;;;;;;25.23;47.93;100055.88;2083954;28;19943;-45